Time;durP1;ratioP1;P1;durP2;ratioP2;P2;SDS_P1;SDS_P2;PMS_P1;PMS_P2;Temp;Humidity;BMP_temperature;BMP_pressure;BME280_temperature;BME280_humidity;BME280_pressure;Samples;Min_cycle;Max_cycle;Signal;HPM_P1;HPM_P2
2022/01/21 00:30:28;;;;;;;;;8.25;7.00;;;;;5.32;65.41;103304.09;6272625;22;45551;-87
2022/01/21 00:32:59;;;;;;;;;7.25;6.50;;;;;5.43;65.35;103320.41;6215203;22;45260;-84
2022/01/21 00:35:27;;;;;;;;;7.75;6.50;;;;;5.50;65.46;103340.81;6273772;22;47405;-86
2022/01/21 00:37:53;;;;;;;;;14.00;9.50;;;;;5.38;65.32;103314.88;6247053;22;45224;-85
2022/01/21 00:43:43;;;;;;;;;;;;;;;;;;;;;
2022/01/21 00:46:26;;;;;;;;;5.00;5.00;;;;;5.28;65.21;103317.75;6267924;22;75116;-85
2022/01/21 00:48:57;;;;;;;;;11.75;8.50;;;;;5.15;65.46;103286.50;6247581;22;45449;-83
2022/01/21 00:51:25;;;;;;;;;9.00;7.00;;;;;5.37;65.88;103327.84;6246936;22;45509;-82
2022/01/21 00:53:53;;;;;;;;;5.75;5.75;;;;;5.15;65.62;103286.50;6247524;22;45747;-82
2022/01/21 00:56:18;;;;;;;;;11.00;8.50;;;;;5.14;66.18;103285.63;6247965;22;47863;-85
2022/01/21 00:58:49;;;;;;;;;9.50;7.50;;;;;5.36;66.05;103329.56;6248944;22;45302;-85
2022/01/21 01:01:21;;;;;;;;;9.25;7.25;;;;;5.21;65.96;103311.28;6274339;22;45422;-84
2022/01/21 01:03:49;;;;;;;;;11.00;8.25;;;;;5.28;66.23;103326.50;6248659;22;45662;-84
2022/01/21 01:06:15;;;;;;;;;8.00;7.25;;;;;5.25;65.90;103320.19;6273955;22;46261;-85
2022/01/21 01:08:58;;;;;;;;;5.75;5.75;;;;;5.14;66.12;103306.50;6275532;22;45735;-84
2022/01/21 01:20:40;;;;;;;;;12.25;6.75;;;;;5.24;66.07;103324.53;6276554;22;45405;-84
2022/01/21 01:30:36;;;;;;;;;10.00;7.00;;;;;5.23;66.31;103325.31;6278198;22;45379;-84
2022/01/21 01:34:01;;;;;;;;;;;;;;;;;;;;;
2022/01/21 01:37:08;;;;;;;;;;;;;;;;;;;;;
2022/01/21 01:50:12;;;;;;;;;7.50;4.00;;;;;5.18;66.01;103316.31;6274241;22;45411;-85
2022/01/21 01:53:00;;;;;;;;;;;;;;;;;;;;;
2022/01/21 01:55:41;;;;;;;;;;;;;;;;;;;;;
2022/01/21 01:58:37;;;;;;;;;;;;;;;;;;;;;
2022/01/21 02:01:19;;;;;;;;;9.00;7.50;;;;;5.00;66.37;103316.13;6276629;22;67349;-83
2022/01/21 02:04:02;;;;;;;;;;;;;;;;;;;;;
2022/01/21 02:07:18;;;;;;;;;;;;;;;;;;;;;
2022/01/21 02:09:52;;;;;;;;;7.75;6.00;;;;;4.86;66.12;103303.91;6263899;22;72940;-84
2022/01/21 02:13:01;;;;;;;;;;;;;;;;;;;;;
2022/01/21 02:26:11;;;;;;;;;;;;;;;;;;;;;
2022/01/21 02:40:34;;;;;;;;;;;;;;;;;;;;;
2022/01/21 02:46:39;;;;;;;;;;;;;;;;;;;;;
2022/01/21 02:49:48;;;;;;;;;6.25;5.00;;;;;4.82;66.28;103317.59;6183034;23;72951;-84
2022/01/21 02:56:16;;;;;;;;;;;;;;;;;;;;;
2022/01/21 03:08:44;;;;;;;;;10.00;8.50;;;;;4.84;66.38;103327.34;6124190;23;45261;-84
2022/01/21 03:11:43;;;;;;;;;7.00;6.75;;;;;4.79;66.62;103330.47;6180184;23;45428;-84
2022/01/21 03:35:28;;;;;;;;;;;;;;;;;;;;;
2022/01/21 03:38:28;;;;;;;;;;;;;;;;;;;;;
2022/01/21 03:41:40;;;;;;;;;;;;;;;;;;;;;
2022/01/21 03:55:07;;;;;;;;;;;;;;;;;;;;;
2022/01/21 03:58:06;;;;;;;;;;;;;;;;;;;;;
2022/01/21 04:01:03;;;;;;;;;;;;;;;;;;;;;
2022/01/21 04:04:19;;;;;;;;;;;;;;;;;;;;;
2022/01/21 04:10:42;;;;;;;;;;;;;;;;;;;;;
2022/01/21 04:14:09;;;;;;;;;;;;;;;;;;;;;
2022/01/21 04:24:11;;;;;;;;;;;;;;;;;;;;;
2022/01/21 04:47:27;;;;;;;;;9.75;9.50;;;;;4.58;67.07;103332.63;6278567;22;45165;-85
2022/01/21 04:53:35;;;;;;;;;;;;;;;;;;;;;
2022/01/21 04:56:54;;;;;;;;;;;;;;;;;;;;;
2022/01/21 05:00:19;;;;;;;;;;;;;;;;;;;;;
2022/01/21 05:06:31;;;;;;;;;;;;;;;;;;;;;
2022/01/21 05:09:15;;;;;;;;;;;;;;;;;;;;;
2022/01/21 05:15:32;;;;;;;;;19.00;15.25;;;;;4.81;67.23;103388.84;6256362;22;45437;-85
2022/01/21 05:25:18;;;;;;;;;;;;;;;;;;;;;
2022/01/21 05:28:09;;;;;;;;;18.00;15.75;;;;;4.67;66.99;103361.91;6277493;22;68687;-84
2022/01/21 05:55:40;;;;;;;;;;;;;;;;;;;;;
2022/01/21 06:08:36;;;;;;;;;;;;;;;;;;;;;
2022/01/21 06:18:51;;;;;;;;;;;;;;;;;;;;;
2022/01/21 06:22:05;;;;;;;;;10.50;8.50;;;;;4.54;67.41;103382.81;6273798;22;68729;-85
2022/01/21 06:31:47;;;;;;;;;;;;;;;;;;;;;
2022/01/21 06:50:04;;;;;;;;;;;;;;;;;;;;;
2022/01/21 06:55:58;;;;;;;;;9.75;7.00;;;;;4.78;67.17;103405.22;6278574;22;45323;-85
2022/01/21 06:58:51;;;;;;;;;10.00;5.50;;;;;4.88;67.11;103411.94;6279315;22;45371;-86
2022/01/21 07:01:52;;;;;;;;;10.50;7.75;;;;;4.79;67.31;103396.59;6251234;22;45731;-85
2022/01/21 07:04:53;;;;;;;;;;;;;;;;;;;;;
2022/01/21 07:07:41;;;;;;;;;11.75;10.00;;;;;4.90;67.13;103414.66;6270437;22;71944;-85
2022/01/21 07:16:12;;;;;;;;;8.75;8.75;;;;;5.00;66.35;103436.19;6191129;22;46711;-83
2022/01/21 07:18:43;;;;;;;;;12.25;10.50;;;;;4.97;66.79;103430.78;6249539;22;45430;-84
2022/01/21 07:21:10;;;;;;;;;9.50;7.00;;;;;5.06;66.70;103460.06;6251071;22;45196;-84
2022/01/21 07:23:49;;;;;;;;;5.50;3.00;;;;;4.93;66.65;103444.44;6254219;22;45366;-85
2022/01/21 07:26:20;;;;;;;;;8.00;8.00;;;;;4.85;67.00;103430.00;6279363;22;46148;-83
2022/01/21 07:28:52;;;;;;;;;11.00;10.00;;;;;4.93;66.72;103454.00;6250705;22;45195;-83
2022/01/21 07:31:31;;;;;;;;;9.50;9.00;;;;;4.89;66.76;103446.75;6278456;22;45590;-83
2022/01/21 07:33:58;;;;;;;;;6.00;6.00;;;;;4.79;67.04;103438.34;6250213;22;45232;-83
2022/01/21 07:36:26;;;;;;;;;9.50;8.50;;;;;4.97;67.15;103476.84;6278067;22;46297;-84
2022/01/21 07:38:53;;;;;;;;;13.25;10.50;;;;;4.79;67.05;103440.97;6250538;22;45407;-84
2022/01/21 07:41:19;;;;;;;;;10.75;10.00;;;;;4.87;67.10;103457.13;6250934;22;45214;-84
2022/01/21 07:43:53;;;;;;;;;10.25;9.50;;;;;4.77;67.28;103442.56;6250960;22;45426;-84
2022/01/21 07:46:21;;;;;;;;;13.25;11.50;;;;;4.95;67.12;103468.06;6278803;22;45502;-84
2022/01/21 07:49:06;;;;;;;;;;;;;;;;;;;;;
2022/01/21 07:52:14;;;;;;;;;;;;;;;;;;;;;
2022/01/21 07:55:54;;;;;;;;;;;;;;;;;;;;;
2022/01/21 08:30:37;;;;;;;;;13.75;12.00;;;;;5.28;66.54;103506.69;5764643;24;45219;-92
2022/01/21 09:08:41;;;;;;;;;14.50;12.50;;;;;5.36;66.90;103496.75;5861899;24;45469;-91
2022/01/21 09:18:44;;;;;;;;;;;;;;;;;;;;;
2022/01/21 09:31:18;;;;;;;;;20.75;19.50;;;;;5.82;66.53;103528.28;6098637;23;44756;-91
2022/01/21 09:33:58;;;;;;;;;19.00;16.00;;;;;5.70;66.41;103511.88;6205219;22;45320;-92
2022/01/21 09:50:29;;;;;;;;;15.75;15.50;;;;;5.85;66.85;103557.22;6012612;23;45313;-90
2022/01/21 09:56:41;;;;;;;;;19.75;15.25;;;;;5.99;66.30;103571.22;6079768;23;45941;-93
2022/01/21 09:59:20;;;;;;;;;22.00;15.00;;;;;5.94;66.42;103565.69;6100078;23;46620;-86
2022/01/21 10:01:58;;;;;;;;;20.75;18.00;;;;;5.94;66.49;103567.41;6177595;22;45295;-86
2022/01/21 10:04:42;;;;;;;;;17.75;16.50;;;;;5.83;66.65;103544.91;6246373;22;45429;-87
2022/01/21 10:07:28;;;;;;;;;20.25;17.00;;;;;5.99;66.40;103575.50;6223083;22;45431;-91
2022/01/21 10:10:07;;;;;;;;;16.00;16.00;;;;;6.06;66.64;103583.81;6224558;22;46868;-91
2022/01/21 10:12:35;;;;;;;;;23.00;20.75;;;;;6.10;66.84;103584.94;6223062;22;45325;-90
2022/01/21 10:15:44;;;;;;;;;22.00;19.25;;;;;5.96;66.57;103550.06;6227341;22;45581;-91
2022/01/21 10:18:14;;;;;;;;;19.50;15.75;;;;;6.23;66.63;103581.31;6250572;22;45330;-87
2022/01/21 10:21:15;;;;;;;;;18.25;16.75;;;;;6.29;66.71;103577.38;6218876;22;46473;-85
2022/01/21 10:24:05;;;;;;;;;16.75;16.50;;;;;6.32;66.46;103582.78;6227271;22;45412;-91
2022/01/21 10:26:33;;;;;;;;;26.50;19.00;;;;;6.15;66.47;103546.88;6230384;22;45209;-89
2022/01/21 10:29:28;;;;;;;;;;;;;;;;;;;;;
2022/01/21 10:46:30;;;;;;;;;21.00;18.50;;;;;6.53;65.65;103563.94;6035995;23;46373;-93
2022/01/21 10:49:28;;;;;;;;;;;;;;;;;;;;;
2022/01/21 10:52:41;;;;;;;;;;;;;;;;;;;;;
2022/01/21 10:55:34;;;;;;;;;17.75;15.50;;;;;6.71;65.51;103580.72;6258557;22;71967;-91
2022/01/21 10:58:52;;;;;;;;;21.50;18.75;;;;;6.77;65.57;103565.34;6238113;22;47263;-92
2022/01/21 11:01:27;;;;;;;;;24.75;17.75;;;;;6.67;65.48;103547.31;6220428;22;45459;-85
2022/01/21 11:05:11;;;;;;;;;;;;;;;;;;;;;
2022/01/21 11:08:19;;;;;;;;;25.50;21.25;;;;;6.93;65.05;103576.72;6097736;23;72327;-94
2022/01/21 11:15:11;;;;;;;;;20.50;18.50;;;;;6.91;65.00;103557.38;5880153;23;45547;-86
2022/01/21 11:17:56;;;;;;;;;19.75;16.00;;;;;6.78;64.97;103527.88;6073599;23;46029;-90
2022/01/21 11:20:48;;;;;;;;;24.50;22.00;;;;;7.01;64.82;103567.56;6088387;23;45217;-88
2022/01/21 11:23:49;;;;;;;;;;;;;;;;;;;;;
2022/01/21 11:27:07;;;;;;;;;22.25;18.50;;;;;6.80;64.34;103522.75;6108503;23;71982;-90
2022/01/21 11:29:32;;;;;;;;;22.50;18.25;;;;;6.91;64.68;103560.00;6244811;22;45158;-84
2022/01/21 11:31:58;;;;;;;;;25.25;22.25;;;;;6.94;64.77;103563.69;6219571;22;45423;-83
2022/01/21 11:34:23;;;;;;;;;27.50;19.00;;;;;7.02;64.71;103571.97;6218849;22;47928;-84
2022/01/21 11:36:56;;;;;;;;;22.50;20.75;;;;;7.03;64.78;103565.91;6247998;22;45399;-84
2022/01/21 11:39:38;;;;;;;;;19.75;15.75;;;;;7.09;64.39;103554.91;6220541;22;45189;-87
2022/01/21 11:42:18;;;;;;;;;18.50;17.50;;;;;6.87;64.56;103519.66;6219024;22;45238;-86
2022/01/21 11:44:51;;;;;;;;;10.75;10.50;;;;;7.00;64.46;103552.66;6246249;22;45370;-83
2022/01/21 11:54:44;;;;;;;;;13.25;8.50;;;;;7.03;64.37;103538.03;6200373;22;44805;-87
2022/01/21 11:58:36;;;;;;;;;;;;;;;;;;;;;
2022/01/21 12:01:55;;;;;;;;;14.75;13.00;;;;;6.94;64.88;103547.97;6148253;23;45401;-87
2022/01/21 12:09:09;;;;;;;;;;;;;;;;;;;;;
2022/01/21 12:12:19;;;;;;;;;;;;;;;;;;;;;
2022/01/21 12:22:33;;;;;;;;;;;;;;;;;;;;;
2022/01/21 12:39:47;;;;;;;;;;;;;;;;;;;;;
2022/01/21 12:53:21;;;;;;;;;19.00;14.00;;;;;7.55;63.80;103507.63;5787571;24;44848;-87
2022/01/21 12:56:02;;;;;;;;;13.00;12.00;;;;;7.42;63.62;103486.00;5883942;23;45299;-90
2022/01/21 12:59:06;;;;;;;;;;;;;;;;;;;;;
2022/01/21 13:01:51;;;;;;;;;8.25;8.25;;;;;7.50;64.00;103508.25;6162411;22;71509;-89
2022/01/21 13:04:43;;;;;;;;;9.25;8.00;;;;;7.44;64.30;103505.31;6246504;22;46836;-87
2022/01/21 13:08:12;;;;;;;;;7.25;7.25;;;;;7.34;64.42;103478.53;6249004;22;45422;-88
2022/01/21 13:10:48;;;;;;;;;13.75;11.00;;;;;7.31;64.47;103475.75;6126813;23;45352;-89
2022/01/21 13:13:34;;;;;;;;;13.25;11.50;;;;;7.44;64.59;103491.31;6151615;23;45274;-88
2022/01/21 13:16:12;;;;;;;;;8.00;8.00;;;;;7.57;64.41;103492.88;6207786;22;47197;-85
2022/01/21 13:18:52;;;;;;;;;;;;;;;;;;;;;
2022/01/21 13:24:01;;;;;;;;;16.00;13.25;;;;;7.71;64.08;103449.94;5131066;27;45475;-86
2022/01/21 13:26:54;;;;;;;;;;;;;;;;;;;;;
2022/01/21 13:30:19;;;;;;;;;14.75;14.00;;;;;8.17;63.62;103466.28;5105078;27;67847;-87
2022/01/21 13:33:21;;;;;;;;;;;;;;;;;;;;;
2022/01/21 13:47:08;;;;;;;;;14.50;14.50;;;;;8.42;62.02;103433.44;4862409;28;45369;-84
2022/01/21 13:49:47;;;;;;;;;16.50;14.25;;;;;8.53;62.00;103447.97;4987505;28;46313;-85
2022/01/21 13:52:14;;;;;;;;;20.00;18.00;;;;;8.44;61.82;103434.38;4968292;28;45565;-84
2022/01/21 13:54:52;;;;;;;;;20.00;16.25;;;;;8.57;62.04;103457.75;4965885;28;45558;-85
2022/01/21 13:57:28;;;;;;;;;18.75;14.75;;;;;8.50;61.83;103441.63;5066256;27;45500;-82
2022/01/21 14:00:06;;;;;;;;;15.75;14.50;;;;;8.56;61.93;103442.84;5107396;27;47277;-82
2022/01/21 14:03:30;;;;;;;;;15.75;14.00;;;;;8.58;62.00;103435.97;5102382;27;45419;-88
2022/01/21 14:05:58;;;;;;;;;15.00;14.25;;;;;8.68;62.07;103453.03;5114544;27;45345;-85
2022/01/21 14:16:03;;;;;;;;;;;;;;;;;;;;;
2022/01/21 14:22:20;;;;;;;;;12.50;9.50;;;;;8.74;60.49;103441.91;4955142;28;45594;-83
2022/01/21 14:24:48;;;;;;;;;7.25;7.25;;;;;8.60;60.72;103425.50;4964574;28;45613;-85
2022/01/21 14:27:32;;;;;;;;;8.50;7.25;;;;;8.73;60.59;103454.16;4980732;28;45436;-85
2022/01/21 14:30:00;;;;;;;;;9.75;9.00;;;;;8.78;60.76;103452.66;5009538;28;45365;-84
2022/01/21 14:32:35;;;;;;;;;8.00;8.00;;;;;8.84;60.50;103452.03;5022384;28;45691;-88
2022/01/21 14:35:35;;;;;;;;;10.50;10.00;;;;;8.90;60.62;103456.69;4983170;28;47180;-86
2022/01/21 14:38:11;;;;;;;;;9.75;9.50;;;;;8.90;60.24;103454.97;4991835;28;45486;-84
2022/01/21 14:40:49;;;;;;;;;13.00;8.25;;;;;8.78;60.12;103426.38;4982717;28;45429;-84
2022/01/21 14:43:19;;;;;;;;;7.25;7.25;;;;;8.86;59.86;103423.22;5078357;27;45594;-83
2022/01/21 14:46:04;;;;;;;;;8.00;7.00;;;;;9.19;59.69;103415.97;5094047;27;46469;-85
2022/01/21 14:48:33;;;;;;;;;8.25;8.25;;;;;9.61;59.28;103424.88;5082622;27;45390;-83
2022/01/21 14:51:12;;;;;;;;;9.25;6.75;;;;;10.42;58.78;103418.59;5074267;27;45537;-81
2022/01/21 14:53:43;;;;;;;;;9.50;8.75;;;;;11.29;56.56;103421.97;5079062;27;45432;-83
2022/01/21 14:56:24;;;;;;;;;11.00;10.00;;;;;11.87;55.63;103417.88;5082379;27;48407;-83
2022/01/21 14:59:17;;;;;;;;;;;;;;;;;;;;;
2022/01/21 15:02:04;;;;;;;;;14.00;10.00;;;;;12.55;54.03;103444.75;5100332;27;69172;-82
2022/01/21 15:04:47;;;;;;;;;9.75;8.50;;;;;12.30;53.08;103420.19;5095690;27;45546;-83
2022/01/21 15:07:17;;;;;;;;;8.00;4.75;;;;;12.39;53.45;103429.25;5082130;27;47019;-83
2022/01/21 15:09:50;;;;;;;;;7.00;7.00;;;;;12.36;53.16;103428.31;5081925;27;45271;-83
2022/01/21 15:15:52;;;;;;;;;7.25;7.00;;;;;11.99;52.27;103454.34;5089729;27;45410;-87
2022/01/21 15:18:18;;;;;;;;;11.00;9.50;;;;;11.69;52.29;103453.28;5082108;27;46838;-86
2022/01/21 15:21:02;;;;;;;;;8.25;7.00;;;;;11.41;52.21;103437.31;5094995;27;46376;-86
2022/01/21 15:24:36;;;;;;;;;;;;;;;;;;;;;
2022/01/21 15:37:56;;;;;;;;;7.00;7.00;;;;;10.01;54.14;103413.41;5044704;27;44819;-84
2022/01/21 15:41:08;;;;;;;;;7.25;7.00;;;;;9.81;54.27;103412.59;5077329;27;45781;-88
2022/01/21 15:43:45;;;;;;;;;7.00;5.25;;;;;9.71;54.59;103419.19;5100332;27;46460;-86
2022/01/21 15:46:34;;;;;;;;;9.00;7.25;;;;;9.60;54.76;103440.59;5092179;27;45358;-85
2022/01/21 15:57:11;;;;;;;;;;;;;;;;;;;;;
2022/01/21 16:06:43;;;;;;;;;7.75;6.75;;;;;8.66;56.56;103423.19;5027400;28;45377;-84
2022/01/21 16:10:06;;;;;;;;;7.25;4.75;;;;;8.67;56.67;103437.22;5059037;28;46891;-87
2022/01/21 16:13:07;;;;;;;;;8.00;8.00;;;;;8.55;57.12;103437.50;5063436;27;45277;-88
2022/01/21 16:15:34;;;;;;;;;8.75;8.75;;;;;8.33;57.34;103404.94;5056679;27;45992;-86
2022/01/21 16:18:09;;;;;;;;;8.50;8.00;;;;;8.37;57.48;103413.88;5088318;27;45562;-85
2022/01/21 16:20:44;;;;;;;;;;;;;;;;;;;;;
2022/01/21 16:23:49;;;;;;;;;;;;;;;;;;;;;
2022/01/21 16:26:38;;;;;;;;;12.75;10.00;;;;;8.23;58.19;103436.81;5101529;27;69288;-87
2022/01/21 16:29:12;;;;;;;;;12.75;12.75;;;;;8.13;58.54;103431.97;5090703;27;45646;-82
2022/01/21 16:31:38;;;;;;;;;15.25;12.50;;;;;7.95;58.59;103403.97;5092539;27;46267;-85
2022/01/21 16:34:19;;;;;;;;;18.25;15.00;;;;;7.86;58.91;103398.28;5086544;27;45904;-85
2022/01/21 16:37:17;;;;;;;;;12.50;12.25;;;;;7.86;59.00;103420.97;5107675;27;45625;-87
2022/01/21 16:39:45;;;;;;;;;12.00;12.00;;;;;7.85;59.15;103429.66;5012030;27;46431;-86
2022/01/21 16:56:56;;;;;;;;;15.25;13.25;;;;;7.60;59.85;103431.03;4956200;28;45557;-90
2022/01/21 17:03:20;;;;;;;;;20.25;17.75;;;;;7.37;59.99;103407.94;4893024;29;46561;-85
2022/01/21 17:09:49;;;;;;;;;14.25;14.25;;;;;7.45;60.34;103432.84;4892959;29;46734;-88
2022/01/21 17:15:46;;;;;;;;;19.50;14.00;;;;;7.26;60.56;103399.53;4784075;29;45676;-85
2022/01/21 17:18:56;;;;;;;;;;;;;;;;;;;;;
2022/01/21 17:21:33;;;;;;;;;17.00;14.00;;;;;7.36;60.46;103421.88;4898551;28;75194;-87
2022/01/21 17:24:18;;;;;;;;;19.75;16.00;;;;;7.33;60.60;103425.25;4877325;29;45370;-86
2022/01/21 17:26:57;;;;;;;;;21.00;18.00;;;;;7.20;60.83;103404.44;5034007;27;45541;-87
2022/01/21 17:29:40;;;;;;;;;27.75;25.00;;;;;7.13;60.70;103395.34;5085681;27;45341;-88
2022/01/21 17:35:39;;;;;;;;;22.50;22.00;;;;;7.26;60.80;103425.72;5087272;27;45599;-84
2022/01/21 17:42:02;;;;;;;;;28.75;25.25;;;;;7.22;60.93;103434.25;5020669;28;45627;-86
2022/01/21 17:45:32;;;;;;;;;33.50;30.75;;;;;7.01;61.06;103402.56;4998754;28;46792;-88
2022/01/21 18:01:43;;;;;;;;;31.25;30.50;;;;;6.93;62.01;103422.22;4773723;29;45313;-83
2022/01/21 18:04:27;;;;;;;;;;;;;;;;;;;;;
2022/01/21 18:07:47;;;;;;;;;33.50;32.50;;;;;6.80;62.42;103408.44;4883155;28;71856;-85
2022/01/21 18:10:27;;;;;;;;;37.75;35.00;;;;;6.83;62.17;103423.41;4993325;28;45875;-84
2022/01/21 18:13:48;;;;;;;;;;;;;;;;;;;;;
2022/01/21 18:16:20;;;;;;;;;41.75;35.25;;;;;6.87;62.39;103434.94;5078301;27;67337;-87
2022/01/21 18:19:23;;;;;;;;;44.00;36.25;;;;;6.79;62.86;103429.28;5099415;27;45919;-88
2022/01/21 18:26:47;;;;;;;;;50.25;41.75;;;;;6.65;62.47;103406.69;5062814;28;45581;-87
2022/01/21 18:28:56;;;;;;;;;51.25;41.75;;;;;6.63;62.70;103420.59;5058030;28;45778;-88
2022/01/21 18:31:37;;;;;;;;;47.50;42.00;;;;;6.72;62.92;103432.41;5097290;27;45966;-88
2022/01/21 18:34:09;;;;;;;;;56.75;45.00;;;;;6.77;62.90;103446.66;5069964;28;45853;-85
2022/01/21 18:40:22;;;;;;;;;51.25;43.75;;;;;6.70;63.25;103428.78;4990602;28;45634;-83
2022/01/21 18:42:51;;;;;;;;;54.00;44.50;;;;;6.70;62.99;103447.09;4986681;28;45639;-81
2022/01/21 18:45:21;;;;;;;;;54.75;46.00;;;;;6.70;63.21;103442.75;5028371;27;46935;-81
2022/01/21 18:47:49;;;;;;;;;58.00;45.25;;;;;6.65;63.20;103443.31;5077983;27;45674;-82
2022/01/21 18:50:20;;;;;;;;;67.50;52.00;;;;;6.70;63.50;103448.00;5086040;27;46505;-82
2022/01/21 18:53:01;;;;;;;;;53.75;45.25;;;;;6.63;63.23;103436.31;5093130;27;45523;-83
2022/01/21 18:55:27;;;;;;;;;58.00;46.00;;;;;6.75;63.18;103454.41;5073507;27;47572;-82
2022/01/21 18:57:56;;;;;;;;;60.25;50.00;;;;;6.71;63.14;103449.81;5068173;28;45487;-84
2022/01/21 19:00:27;;;;;;;;;61.00;48.75;;;;;6.72;63.09;103456.84;5075613;27;45480;-83
2022/01/21 19:02:58;;;;;;;;;65.50;50.75;;;;;6.65;63.37;103446.84;5067618;28;46824;-83
2022/01/21 19:05:26;;;;;;;;;63.50;51.75;;;;;6.83;62.91;103475.78;5072673;27;47085;-84
2022/01/21 19:07:59;;;;;;;;;56.50;48.00;;;;;6.70;62.96;103447.09;5067633;27;45827;-83
2022/01/21 19:10:35;;;;;;;;;61.75;50.25;;;;;6.85;63.01;103479.38;5073214;28;45309;-84
2022/01/21 19:13:03;;;;;;;;;64.50;50.25;;;;;6.80;62.87;103473.88;5069069;28;45363;-82
2022/01/21 19:15:38;;;;;;;;;60.00;48.50;;;;;6.84;62.96;103481.13;5075921;28;45496;-83
2022/01/21 19:18:07;;;;;;;;;58.00;48.00;;;;;6.69;63.00;103454.06;5077752;28;45374;-83
2022/01/21 19:20:37;;;;;;;;;63.00;51.50;;;;;6.86;63.30;103486.41;5076665;27;45468;-84
2022/01/21 19:23:09;;;;;;;;;64.00;51.75;;;;;6.90;62.83;103484.88;5080616;28;45434;-84
2022/01/21 19:25:40;;;;;;;;;60.00;48.50;;;;;6.78;62.74;103466.75;5097161;27;47104;-84
2022/01/21 19:28:30;;;;;;;;;65.50;51.00;;;;;6.90;62.82;103480.53;5087493;27;45511;-83
2022/01/21 19:34:32;;;;;;;;;62.25;50.50;;;;;6.74;62.69;103456.94;5082409;27;45417;-88
2022/01/21 19:37:07;;;;;;;;;64.00;48.50;;;;;6.84;62.67;103478.50;5081902;27;48499;-88
2022/01/21 19:40:56;;;;;;;;;;;;;;;;;;;;;
2022/01/21 19:43:29;;;;;;;;;62.00;50.00;;;;;6.91;62.28;103492.81;4987707;28;68262;-88
2022/01/21 19:46:14;;;;;;;;;64.25;51.50;;;;;6.78;62.29;103474.63;5034699;28;45581;-88
2022/01/21 19:52:40;;;;;;;;;62.25;50.00;;;;;6.87;62.43;103488.25;5064581;27;45344;-85
2022/01/21 19:59:09;;;;;;;;;65.25;52.75;;;;;6.76;62.11;103479.78;5049398;27;45593;-84
2022/01/21 20:18:13;;;;;;;;;50.75;42.25;;;;;6.81;62.05;103464.31;5005948;28;45592;-86
2022/01/21 20:20:55;;;;;;;;;52.00;42.50;;;;;6.80;61.94;103478.22;4993407;28;45429;-86
2022/01/21 20:23:55;;;;;;;;;48.00;41.75;;;;;6.66;62.01;103456.50;5074824;27;45777;-86
2022/01/21 20:26:45;;;;;;;;;51.50;43.50;;;;;6.70;62.08;103455.84;5044276;28;47042;-85
2022/01/21 20:29:18;;;;;;;;;54.25;44.00;;;;;6.65;62.44;103448.56;5054982;28;45344;-86
2022/01/21 20:31:52;;;;;;;;;48.00;40.00;;;;;6.75;62.12;103470.09;5052211;28;46397;-84
2022/01/21 20:34:23;;;;;;;;;55.50;43.50;;;;;6.67;62.23;103453.06;5053428;28;45621;-85
2022/01/21 20:47:04;;;;;;;;;;;;;;;;;;;;;
2022/01/21 20:50:12;;;;;;;;;;;;;;;;;;;;;
2022/01/21 21:00:43;;;;;;;;;;;;;;;;;;;;;
2022/01/21 21:04:09;;;;;;;;;49.50;42.00;;;;;6.64;62.43;103445.06;4978462;28;75617;-88
2022/01/21 21:06:39;;;;;;;;;47.50;41.00;;;;;6.54;62.21;103438.38;4992025;28;45605;-87
2022/01/21 21:09:27;;;;;;;;;44.75;37.50;;;;;6.55;62.55;103434.97;5065652;27;45358;-87
2022/01/21 21:12:06;;;;;;;;;49.75;40.25;;;;;6.57;62.54;103441.16;5066864;28;45427;-84
2022/01/21 22:22:44;;;;;;;;;46.00;39.00;;;;;6.78;61.76;103423.16;4983746;28;45596;-91
2022/01/21 23:03:58;;;;;;;;;;;;;;;;;;;;;
2022/01/21 23:06:36;;;;;;;;;32.50;30.25;;;;;6.79;60.66;103411.88;5093616;27;68511;-91
2022/01/21 23:09:41;;;;;;;;;;;;;;;;;;;;;
2022/01/21 23:12:17;;;;;;;;;;;;;;;;;;;;;
2022/01/21 23:15:30;;;;;;;;;21.75;19.50;;;;;6.67;60.74;103403.34;5100622;27;74154;-88
2022/01/21 23:22:16;;;;;;;;;;;;;;;;;;;;;
2022/01/21 23:27:48;;;;;;;;;;;;;;;;;;;;;
2022/01/21 23:30:54;;;;;;;;;21.25;21.25;;;;;6.88;60.75;103421.06;5077111;27;69537;-90
2022/01/21 23:33:50;;;;;;;;;24.75;21.25;;;;;6.71;60.63;103397.47;4973154;28;45582;-91
2022/01/21 23:36:34;;;;;;;;;27.00;24.00;;;;;6.83;60.57;103426.03;4950425;28;47918;-89
2022/01/21 23:42:31;;;;;;;;;24.75;20.25;;;;;6.81;60.53;103435.50;4970323;28;45374;-94
2022/01/21 23:45:32;;;;;;;;;;;;;;;;;;;;;
2022/01/21 23:48:09;;;;;;;;;24.50;21.00;;;;;6.60;60.60;103409.03;4974278;28;74822;-94
2022/01/21 23:50:56;;;;;;;;;22.50;21.00;;;;;6.62;60.89;103403.06;4988505;28;45305;-94
2022/01/21 23:53:28;;;;;;;;;20.50;16.25;;;;;6.61;60.60;103401.28;5070811;28;45501;-92
2022/01/21 23:56:01;;;;;;;;;23.00;20.75;;;;;6.74;60.83;103418.56;5077966;28;46499;-89
2022/01/21 23:58:29;;;;;;;;;25.75;21.50;;;;;6.73;60.33;103424.59;5061880;28;47319;-90
